sensor_id;sensor_type;location;lat;lon;timestamp;pressure;altitude;pressure_sealevel;temperature;humidity
54994;BME280;40891;47.242;8.648;2023-03-30T00:02:17;96320.38;;;13.34;74.78
54994;BME280;40891;47.242;8.648;2023-03-30T00:04:43;96318.88;;;13.48;75.00
54994;BME280;40891;47.242;8.648;2023-03-30T00:07:09;96321.59;;;13.33;74.88
54994;BME280;40891;47.242;8.648;2023-03-30T00:09:35;96320.47;;;13.40;74.19
54994;BME280;40891;47.242;8.648;2023-03-30T00:12:07;96312.63;;;13.29;75.32
54994;BME280;40891;47.242;8.648;2023-03-30T00:14:32;96324.38;;;13.33;75.01
54994;BME280;40891;47.242;8.648;2023-03-30T00:17:02;96310.13;;;13.31;74.67
54994;BME280;40891;47.242;8.648;2023-03-30T00:19:28;96312.00;;;13.25;74.93
54994;BME280;40891;47.242;8.648;2023-03-30T00:21:53;96321.34;;;13.22;76.13
54994;BME280;40891;47.242;8.648;2023-03-30T00:24:19;96310.81;;;13.17;75.89
54994;BME280;40891;47.242;8.648;2023-03-30T00:26:45;96306.34;;;13.11;76.29
54994;BME280;40891;47.242;8.648;2023-03-30T00:29:10;96306.75;;;13.18;75.71
54994;BME280;40891;47.242;8.648;2023-03-30T00:31:36;96304.59;;;13.22;74.82
54994;BME280;40891;47.242;8.648;2023-03-30T00:34:01;96306.94;;;13.15;76.15
54994;BME280;40891;47.242;8.648;2023-03-30T00:36:26;96300.91;;;13.07;75.85
54994;BME280;40891;47.242;8.648;2023-03-30T00:38:52;96290.97;;;13.06;76.26
54994;BME280;40891;47.242;8.648;2023-03-30T00:41:18;96298.44;;;13.00;76.41
54994;BME280;40891;47.242;8.648;2023-03-30T00:46:51;96281.22;;;13.02;76.53
54994;BME280;40891;47.242;8.648;2023-03-30T00:49:16;96292.06;;;12.99;76.12
54994;BME280;40891;47.242;8.648;2023-03-30T00:51:42;96275.63;;;13.02;76.30
54994;BME280;40891;47.242;8.648;2023-03-30T00:54:11;96276.69;;;13.04;76.25
54994;BME280;40891;47.242;8.648;2023-03-30T00:56:37;96280.28;;;13.05;75.79
54994;BME280;40891;47.242;8.648;2023-03-30T00:59:03;96273.59;;;13.11;74.92
54994;BME280;40891;47.242;8.648;2023-03-30T01:01:30;96278.72;;;13.13;75.33
54994;BME280;40891;47.242;8.648;2023-03-30T01:04:04;96270.81;;;13.11;75.06
54994;BME280;40891;47.242;8.648;2023-03-30T01:06:31;96284.75;;;13.20;75.36
54994;BME280;40891;47.242;8.648;2023-03-30T01:08:58;96275.13;;;13.21;75.07
54994;BME280;40891;47.242;8.648;2023-03-30T01:11:24;96280.09;;;13.17;76.20
54994;BME280;40891;47.242;8.648;2023-03-30T01:13:55;96288.13;;;13.24;74.26
54994;BME280;40891;47.242;8.648;2023-03-30T01:27:44;96276.28;;;13.38;75.55
54994;BME280;40891;47.242;8.648;2023-03-30T01:36:16;96267.28;;;13.11;79.79
54994;BME280;40891;47.242;8.648;2023-03-30T01:44:29;96262.41;;;13.20;80.12
54994;BME280;40891;47.242;8.648;2023-03-30T01:47:10;96252.38;;;13.05;81.24
54994;BME280;40891;47.242;8.648;2023-03-30T01:49:44;96250.69;;;12.98;84.51
54994;BME280;40891;47.242;8.648;2023-03-30T01:52:28;96270.94;;;12.75;85.80
54994;BME280;40891;47.242;8.648;2023-03-30T01:55:00;96274.66;;;12.72;86.14
54994;BME280;40891;47.242;8.648;2023-03-30T01:57:46;96278.84;;;12.67;86.47
54994;BME280;40891;47.242;8.648;2023-03-30T02:00:17;96272.19;;;12.65;86.84
54994;BME280;40891;47.242;8.648;2023-03-30T02:02:47;96271.91;;;12.63;88.71
54994;BME280;40891;47.242;8.648;2023-03-30T02:05:18;96275.09;;;12.79;86.50
54994;BME280;40891;47.242;8.648;2023-03-30T02:07:50;96268.22;;;12.98;80.59
54994;BME280;40891;47.242;8.648;2023-03-30T02:10:18;96263.41;;;13.08;80.31
54994;BME280;40891;47.242;8.648;2023-03-30T02:12:46;96239.03;;;13.09;80.83
54994;BME280;40891;47.242;8.648;2023-03-30T02:15:13;96210.34;;;12.99;80.96
54994;BME280;40891;47.242;8.648;2023-03-30T02:17:41;96212.91;;;12.88;83.65
54994;BME280;40891;47.242;8.648;2023-03-30T02:20:08;96232.28;;;12.91;83.05
54994;BME280;40891;47.242;8.648;2023-03-30T02:22:34;96208.84;;;12.98;81.29
54994;BME280;40891;47.242;8.648;2023-03-30T02:25:00;96196.09;;;12.97;79.82
54994;BME280;40891;47.242;8.648;2023-03-30T02:27:27;96215.63;;;13.06;81.01
54994;BME280;40891;47.242;8.648;2023-03-30T02:29:52;96222.00;;;12.97;79.49
54994;BME280;40891;47.242;8.648;2023-03-30T02:32:24;96206.34;;;13.00;79.31
54994;BME280;40891;47.242;8.648;2023-03-30T02:35:07;96194.69;;;13.02;77.58
54994;BME280;40891;47.242;8.648;2023-03-30T02:40:44;96185.19;;;13.17;75.86
54994;BME280;40891;47.242;8.648;2023-03-30T02:46:10;96179.13;;;13.19;77.11
54994;BME280;40891;47.242;8.648;2023-03-30T02:51:38;96183.28;;;13.23;75.64
54994;BME280;40891;47.242;8.648;2023-03-30T02:54:13;96176.63;;;13.21;75.60
54994;BME280;40891;47.242;8.648;2023-03-30T02:59:56;96181.84;;;13.28;75.50
54994;BME280;40891;47.242;8.648;2023-03-30T03:02:29;96177.41;;;13.21;75.27
54994;BME280;40891;47.242;8.648;2023-03-30T03:04:58;96164.69;;;13.20;75.73
54994;BME280;40891;47.242;8.648;2023-03-30T03:07:28;96170.81;;;13.10;77.10
54994;BME280;40891;47.242;8.648;2023-03-30T03:10:00;96166.03;;;13.01;78.13
54994;BME280;40891;47.242;8.648;2023-03-30T03:12:26;96157.66;;;13.01;77.26
54994;BME280;40891;47.242;8.648;2023-03-30T03:14:53;96162.56;;;13.15;75.81
54994;BME280;40891;47.242;8.648;2023-03-30T03:17:18;96149.47;;;13.21;75.24
54994;BME280;40891;47.242;8.648;2023-03-30T03:19:47;96123.78;;;13.17;75.78
54994;BME280;40891;47.242;8.648;2023-03-30T03:22:12;96105.94;;;13.15;76.72
54994;BME280;40891;47.242;8.648;2023-03-30T03:24:38;96096.06;;;13.05;77.96
54994;BME280;40891;47.242;8.648;2023-03-30T03:27:04;96083.25;;;12.98;77.42
54994;BME280;40891;47.242;8.648;2023-03-30T03:29:30;96080.53;;;12.89;78.43
54994;BME280;40891;47.242;8.648;2023-03-30T03:31:56;96082.13;;;12.81;78.79
54994;BME280;40891;47.242;8.648;2023-03-30T03:34:21;96083.66;;;12.82;77.88
54994;BME280;40891;47.242;8.648;2023-03-30T03:36:50;96071.25;;;12.83;78.41
54994;BME280;40891;47.242;8.648;2023-03-30T03:39:16;96066.63;;;12.80;79.22
54994;BME280;40891;47.242;8.648;2023-03-30T03:41:42;96075.66;;;12.75;79.34
54994;BME280;40891;47.242;8.648;2023-03-30T03:44:07;96072.25;;;12.71;79.54
54994;BME280;40891;47.242;8.648;2023-03-30T03:46:32;96068.38;;;12.68;79.42
54994;BME280;40891;47.242;8.648;2023-03-30T03:48:58;96067.34;;;12.66;80.25
54994;BME280;40891;47.242;8.648;2023-03-30T03:51:23;96063.28;;;12.67;80.31
54994;BME280;40891;47.242;8.648;2023-03-30T03:53:48;96074.16;;;12.65;79.71
54994;BME280;40891;47.242;8.648;2023-03-30T03:56:14;96075.38;;;12.64;80.90
54994;BME280;40891;47.242;8.648;2023-03-30T03:58:39;96056.47;;;12.68;80.55
54994;BME280;40891;47.242;8.648;2023-03-30T04:01:05;96071.06;;;12.63;79.85
54994;BME280;40891;47.242;8.648;2023-03-30T04:03:30;96057.56;;;12.70;79.51
54994;BME280;40891;47.242;8.648;2023-03-30T04:05:59;96058.44;;;12.76;78.46
54994;BME280;40891;47.242;8.648;2023-03-30T04:08:24;96045.25;;;12.77;79.31
54994;BME280;40891;47.242;8.648;2023-03-30T04:10:50;96045.31;;;12.91;77.04
54994;BME280;40891;47.242;8.648;2023-03-30T04:13:15;96039.81;;;12.97;77.57
54994;BME280;40891;47.242;8.648;2023-03-30T04:15:40;96027.13;;;12.96;77.19
54994;BME280;40891;47.242;8.648;2023-03-30T04:18:06;96030.72;;;12.96;77.36
54994;BME280;40891;47.242;8.648;2023-03-30T04:20:32;96017.50;;;12.97;78.32
54994;BME280;40891;47.242;8.648;2023-03-30T04:22:57;96016.44;;;12.94;78.36
54994;BME280;40891;47.242;8.648;2023-03-30T04:25:26;96024.06;;;12.94;77.42
54994;BME280;40891;47.242;8.648;2023-03-30T04:27:52;96014.91;;;12.93;78.05
54994;BME280;40891;47.242;8.648;2023-03-30T04:30:18;96016.16;;;12.92;77.85
54994;BME280;40891;47.242;8.648;2023-03-30T04:32:44;96015.84;;;12.90;78.32
54994;BME280;40891;47.242;8.648;2023-03-30T04:35:19;96010.84;;;12.80;78.80
54994;BME280;40891;47.242;8.648;2023-03-30T04:37:44;96000.84;;;12.88;78.11
54994;BME280;40891;47.242;8.648;2023-03-30T04:40:10;96003.22;;;12.80;79.00
54994;BME280;40891;47.242;8.648;2023-03-30T04:42:37;96003.81;;;12.84;78.60
54994;BME280;40891;47.242;8.648;2023-03-30T04:45:04;95999.69;;;12.80;79.43
54994;BME280;40891;47.242;8.648;2023-03-30T04:47:30;96001.50;;;12.83;79.05
54994;BME280;40891;47.242;8.648;2023-03-30T04:49:55;95990.81;;;12.81;78.75
54994;BME280;40891;47.242;8.648;2023-03-30T04:52:20;95982.63;;;12.78;78.73
54994;BME280;40891;47.242;8.648;2023-03-30T04:54:46;95977.66;;;12.82;79.00
54994;BME280;40891;47.242;8.648;2023-03-30T04:57:12;95971.69;;;12.89;77.66
54994;BME280;40891;47.242;8.648;2023-03-30T04:59:39;95966.91;;;12.89;78.18
54994;BME280;40891;47.242;8.648;2023-03-30T05:02:04;95970.34;;;12.99;76.89
54994;BME280;40891;47.242;8.648;2023-03-30T05:04:30;95972.84;;;12.97;77.12
54994;BME280;40891;47.242;8.648;2023-03-30T05:06:55;95964.75;;;13.08;75.51
54994;BME280;40891;47.242;8.648;2023-03-30T05:09:22;95966.78;;;13.22;75.05
54994;BME280;40891;47.242;8.648;2023-03-30T05:11:47;95969.28;;;13.20;75.04
54994;BME280;40891;47.242;8.648;2023-03-30T05:14:13;95984.06;;;13.12;75.74
54994;BME280;40891;47.242;8.648;2023-03-30T05:16:38;95988.13;;;13.25;73.79
54994;BME280;40891;47.242;8.648;2023-03-30T05:19:04;95979.38;;;13.32;75.36
54994;BME280;40891;47.242;8.648;2023-03-30T05:21:29;95988.13;;;13.25;75.07
54994;BME280;40891;47.242;8.648;2023-03-30T05:23:55;95996.13;;;13.32;73.50
54994;BME280;40891;47.242;8.648;2023-03-30T05:26:21;96015.97;;;13.20;74.90
54994;BME280;40891;47.242;8.648;2023-03-30T05:28:48;96012.19;;;13.08;75.82
54994;BME280;40891;47.242;8.648;2023-03-30T05:31:14;96003.91;;;13.14;76.05
54994;BME280;40891;47.242;8.648;2023-03-30T05:33:39;95988.78;;;13.06;77.47
54994;BME280;40891;47.242;8.648;2023-03-30T05:36:05;95988.50;;;13.18;78.60
54994;BME280;40891;47.242;8.648;2023-03-30T05:38:31;95994.81;;;13.04;77.33
54994;BME280;40891;47.242;8.648;2023-03-30T05:40:56;95992.56;;;13.17;75.18
54994;BME280;40891;47.242;8.648;2023-03-30T05:43:22;95994.03;;;13.27;74.29
54994;BME280;40891;47.242;8.648;2023-03-30T05:45:47;95988.44;;;13.27;74.63
54994;BME280;40891;47.242;8.648;2023-03-30T05:48:13;95997.28;;;13.26;74.90
54994;BME280;40891;47.242;8.648;2023-03-30T05:50:38;95989.09;;;13.22;76.50
54994;BME280;40891;47.242;8.648;2023-03-30T05:53:04;96028.16;;;13.08;78.74
54994;BME280;40891;47.242;8.648;2023-03-30T05:55:29;96008.63;;;13.08;79.64
54994;BME280;40891;47.242;8.648;2023-03-30T05:57:54;96018.28;;;12.97;79.84
54994;BME280;40891;47.242;8.648;2023-03-30T06:00:21;96034.53;;;12.99;79.57
54994;BME280;40891;47.242;8.648;2023-03-30T06:02:47;96018.28;;;12.97;81.13
54994;BME280;40891;47.242;8.648;2023-03-30T06:05:13;96032.72;;;12.96;82.93
54994;BME280;40891;47.242;8.648;2023-03-30T06:07:38;96018.84;;;13.02;80.64
54994;BME280;40891;47.242;8.648;2023-03-30T06:10:05;96021.63;;;13.11;80.49
54994;BME280;40891;47.242;8.648;2023-03-30T06:12:32;96009.41;;;13.08;80.66
54994;BME280;40891;47.242;8.648;2023-03-30T06:14:57;96005.91;;;13.13;80.69
54994;BME280;40891;47.242;8.648;2023-03-30T06:17:26;95998.31;;;13.14;80.99
54994;BME280;40891;47.242;8.648;2023-03-30T06:19:52;96008.13;;;13.09;81.06
54994;BME280;40891;47.242;8.648;2023-03-30T06:22:17;95998.06;;;13.26;79.52
54994;BME280;40891;47.242;8.648;2023-03-30T06:24:42;95997.19;;;13.20;79.43
54994;BME280;40891;47.242;8.648;2023-03-30T06:27:08;96009.09;;;13.21;78.61
54994;BME280;40891;47.242;8.648;2023-03-30T06:29:33;95984.09;;;13.26;78.02
54994;BME280;40891;47.242;8.648;2023-03-30T06:31:58;95976.19;;;13.39;77.22
54994;BME280;40891;47.242;8.648;2023-03-30T06:34:24;95973.63;;;13.50;76.11
54994;BME280;40891;47.242;8.648;2023-03-30T06:36:50;95969.44;;;13.60;74.29
54994;BME280;40891;47.242;8.648;2023-03-30T06:39:15;95964.16;;;13.62;75.22
54994;BME280;40891;47.242;8.648;2023-03-30T06:41:41;95960.00;;;13.73;75.87
54994;BME280;40891;47.242;8.648;2023-03-30T06:44:07;95957.91;;;13.68;75.24
54994;BME280;40891;47.242;8.648;2023-03-30T06:46:34;95963.00;;;13.69;76.61
54994;BME280;40891;47.242;8.648;2023-03-30T06:48:59;95954.25;;;13.61;78.13
54994;BME280;40891;47.242;8.648;2023-03-30T06:51:25;95964.06;;;13.72;77.73
54994;BME280;40891;47.242;8.648;2023-03-30T06:53:50;95960.31;;;13.75;78.98
54994;BME280;40891;47.242;8.648;2023-03-30T06:56:16;95959.59;;;13.80;78.60
54994;BME280;40891;47.242;8.648;2023-03-30T06:58:41;95964.78;;;13.87;78.44
54994;BME280;40891;47.242;8.648;2023-03-30T07:01:10;95961.78;;;14.05;77.51
54994;BME280;40891;47.242;8.648;2023-03-30T07:03:36;95964.03;;;14.21;75.24
54994;BME280;40891;47.242;8.648;2023-03-30T07:06:02;95966.63;;;14.24;76.65
54994;BME280;40891;47.242;8.648;2023-03-30T07:08:28;95989.91;;;14.16;78.04
54994;BME280;40891;47.242;8.648;2023-03-30T07:10:53;95976.47;;;14.20;76.60
54994;BME280;40891;47.242;8.648;2023-03-30T07:13:19;95956.22;;;14.25;75.86
54994;BME280;40891;47.242;8.648;2023-03-30T07:15:45;96048.63;;;14.01;76.82
54994;BME280;40891;47.242;8.648;2023-03-30T07:18:11;96102.53;;;14.02;76.71
54994;BME280;40891;47.242;8.648;2023-03-30T07:20:36;96095.69;;;13.88;77.08
54994;BME280;40891;47.242;8.648;2023-03-30T07:23:02;96095.16;;;13.60;77.69
54994;BME280;40891;47.242;8.648;2023-03-30T07:25:28;96117.22;;;13.58;77.82
54994;BME280;40891;47.242;8.648;2023-03-30T07:27:53;96135.13;;;13.52;78.01
54994;BME280;40891;47.242;8.648;2023-03-30T07:30:19;96094.31;;;13.69;78.91
54994;BME280;40891;47.242;8.648;2023-03-30T07:32:47;96078.03;;;13.97;76.25
54994;BME280;40891;47.242;8.648;2023-03-30T07:35:14;96070.03;;;13.75;75.79
54994;BME280;40891;47.242;8.648;2023-03-30T07:37:39;96078.81;;;13.83;75.85
54994;BME280;40891;47.242;8.648;2023-03-30T07:40:06;96081.31;;;13.81;76.92
54994;BME280;40891;47.242;8.648;2023-03-30T07:42:33;96085.94;;;13.84;77.16
54994;BME280;40891;47.242;8.648;2023-03-30T07:44:59;96090.66;;;13.92;78.16
54994;BME280;40891;47.242;8.648;2023-03-30T07:47:24;96085.19;;;14.12;77.64
54994;BME280;40891;47.242;8.648;2023-03-30T07:49:50;96095.22;;;14.34;77.13
54994;BME280;40891;47.242;8.648;2023-03-30T07:52:16;96106.09;;;14.31;77.00
54994;BME280;40891;47.242;8.648;2023-03-30T07:54:41;96110.94;;;14.31;76.45
54994;BME280;40891;47.242;8.648;2023-03-30T07:57:09;96130.88;;;14.39;77.11
54994;BME280;40891;47.242;8.648;2023-03-30T07:59:34;96129.22;;;14.32;79.13
54994;BME280;40891;47.242;8.648;2023-03-30T08:01:59;96120.84;;;14.47;76.17
54994;BME280;40891;47.242;8.648;2023-03-30T08:04:25;96118.81;;;14.32;77.54
54994;BME280;40891;47.242;8.648;2023-03-30T08:06:52;96129.84;;;14.36;78.29
54994;BME280;40891;47.242;8.648;2023-03-30T08:09:18;96125.47;;;14.35;78.26
54994;BME280;40891;47.242;8.648;2023-03-30T08:11:43;96128.72;;;14.48;74.58
54994;BME280;40891;47.242;8.648;2023-03-30T08:14:09;96120.97;;;14.72;72.22
54994;BME280;40891;47.242;8.648;2023-03-30T08:16:35;96120.47;;;15.09;69.50
54994;BME280;40891;47.242;8.648;2023-03-30T08:19:00;96110.81;;;15.30;68.27
54994;BME280;40891;47.242;8.648;2023-03-30T08:21:25;96120.91;;;15.42;66.23
54994;BME280;40891;47.242;8.648;2023-03-30T08:23:54;96114.97;;;15.54;65.77
54994;BME280;40891;47.242;8.648;2023-03-30T08:26:23;96114.81;;;15.63;67.43
54994;BME280;40891;47.242;8.648;2023-03-30T08:28:49;96108.28;;;15.72;65.60
54994;BME280;40891;47.242;8.648;2023-03-30T08:31:14;96097.31;;;15.94;61.98
54994;BME280;40891;47.242;8.648;2023-03-30T08:33:42;96095.53;;;15.97;62.85
54994;BME280;40891;47.242;8.648;2023-03-30T08:36:08;96084.19;;;16.11;60.86
54994;BME280;40891;47.242;8.648;2023-03-30T08:38:33;96077.72;;;16.31;60.88
54994;BME280;40891;47.242;8.648;2023-03-30T08:40:59;96075.44;;;16.35;60.42
54994;BME280;40891;47.242;8.648;2023-03-30T08:43:32;96082.41;;;16.40;60.00
54994;BME280;40891;47.242;8.648;2023-03-30T08:46:01;96080.28;;;16.60;58.61
54994;BME280;40891;47.242;8.648;2023-03-30T08:48:31;96082.19;;;16.80;58.53
54994;BME280;40891;47.242;8.648;2023-03-30T08:51:11;96081.31;;;17.05;61.38
54994;BME280;40891;47.242;8.648;2023-03-30T08:53:39;96064.94;;;16.98;63.22
54994;BME280;40891;47.242;8.648;2023-03-30T08:56:10;96066.81;;;17.18;63.55
54994;BME280;40891;47.242;8.648;2023-03-30T08:58:45;96059.69;;;17.28;62.23
54994;BME280;40891;47.242;8.648;2023-03-30T09:01:27;96070.31;;;17.55;60.78
54994;BME280;40891;47.242;8.648;2023-03-30T09:06:50;96080.00;;;19.42;56.23
54994;BME280;40891;47.242;8.648;2023-03-30T09:09:18;96074.13;;;19.24;55.14
54994;BME280;40891;47.242;8.648;2023-03-30T09:11:47;96090.34;;;18.95;56.16
54994;BME280;40891;47.242;8.648;2023-03-30T09:14:32;96105.72;;;18.22;57.38
54994;BME280;40891;47.242;8.648;2023-03-30T09:17:06;96099.47;;;17.68;57.32
54994;BME280;40891;47.242;8.648;2023-03-30T09:19:38;96111.25;;;17.19;59.16
54994;BME280;40891;47.242;8.648;2023-03-30T09:22:06;96112.38;;;16.90;59.94
54994;BME280;40891;47.242;8.648;2023-03-30T09:24:37;96103.50;;;16.61;62.88
54994;BME280;40891;47.242;8.648;2023-03-30T09:27:09;96123.09;;;16.55;61.72
54994;BME280;40891;47.242;8.648;2023-03-30T09:29:43;96117.97;;;16.22;64.19
54994;BME280;40891;47.242;8.648;2023-03-30T09:32:30;96125.38;;;16.00;64.99
54994;BME280;40891;47.242;8.648;2023-03-30T09:35:14;96142.03;;;15.83;64.99
54994;BME280;40891;47.242;8.648;2023-03-30T09:37:40;96150.81;;;15.71;65.91
54994;BME280;40891;47.242;8.648;2023-03-30T09:40:37;96159.59;;;15.58;67.32
54994;BME280;40891;47.242;8.648;2023-03-30T09:43:14;96182.84;;;15.64;67.15
54994;BME280;40891;47.242;8.648;2023-03-30T09:45:44;96191.75;;;15.62;64.84
54994;BME280;40891;47.242;8.648;2023-03-30T09:48:10;96208.06;;;15.64;66.68
54994;BME280;40891;47.242;8.648;2023-03-30T09:50:39;96232.56;;;15.14;69.35
54994;BME280;40891;47.242;8.648;2023-03-30T09:53:25;96259.44;;;14.62;73.09
54994;BME280;40891;47.242;8.648;2023-03-30T09:56:06;96267.94;;;14.53;74.49
54994;BME280;40891;47.242;8.648;2023-03-30T09:58:34;96270.84;;;14.44;73.50
54994;BME280;40891;47.242;8.648;2023-03-30T10:01:14;96298.03;;;14.44;72.88
54994;BME280;40891;47.242;8.648;2023-03-30T10:03:42;96294.69;;;14.54;73.75
54994;BME280;40891;47.242;8.648;2023-03-30T10:06:18;96301.06;;;14.55;74.24
54994;BME280;40891;47.242;8.648;2023-03-30T10:11:12;96317.53;;;14.38;77.77
54994;BME280;40891;47.242;8.648;2023-03-30T10:13:41;96316.88;;;14.19;82.82
54994;BME280;40891;47.242;8.648;2023-03-30T10:16:11;96324.78;;;13.74;85.96
54994;BME280;40891;47.242;8.648;2023-03-30T10:18:44;96332.72;;;13.42;90.21
54994;BME280;40891;47.242;8.648;2023-03-30T10:23:39;96329.09;;;13.18;94.49
54994;BME280;40891;47.242;8.648;2023-03-30T10:26:18;96323.25;;;13.07;97.47
54994;BME280;40891;47.242;8.648;2023-03-30T10:28:52;96332.09;;;13.06;97.96
54994;BME280;40891;47.242;8.648;2023-03-30T10:31:18;96330.38;;;12.99;97.66
54994;BME280;40891;47.242;8.648;2023-03-30T10:33:44;96337.69;;;12.96;98.34
54994;BME280;40891;47.242;8.648;2023-03-30T10:36:10;96345.75;;;12.85;98.10
54994;BME280;40891;47.242;8.648;2023-03-30T10:38:39;96345.09;;;13.09;98.44
54994;BME280;40891;47.242;8.648;2023-03-30T10:41:12;96340.34;;;12.91;98.85
54994;BME280;40891;47.242;8.648;2023-03-30T10:43:38;96335.22;;;12.80;100.00
54994;BME280;40891;47.242;8.648;2023-03-30T10:46:10;96340.81;;;12.89;99.43
54994;BME280;40891;47.242;8.648;2023-03-30T10:51:56;96330.59;;;12.77;100.00
54994;BME280;40891;47.242;8.648;2023-03-30T10:54:50;96331.56;;;12.65;100.00
54994;BME280;40891;47.242;8.648;2023-03-30T10:57:26;96328.00;;;12.65;100.00
54994;BME280;40891;47.242;8.648;2023-03-30T11:04:56;96325.97;;;12.65;100.00
54994;BME280;40891;47.242;8.648;2023-03-30T11:07:33;96312.94;;;12.71;100.00
54994;BME280;40891;47.242;8.648;2023-03-30T11:10:46;96303.44;;;12.78;100.00
54994;BME280;40891;47.242;8.648;2023-03-30T11:13:11;96289.13;;;13.03;99.27
54994;BME280;40891;47.242;8.648;2023-03-30T11:26:39;96284.53;;;14.42;92.00
54994;BME280;40891;47.242;8.648;2023-03-30T11:31:42;96295.25;;;14.05;92.09
54994;BME280;40891;47.242;8.648;2023-03-30T11:34:15;96295.41;;;14.02;92.42
54994;BME280;40891;47.242;8.648;2023-03-30T11:36:50;96300.22;;;14.01;91.64
54994;BME280;40891;47.242;8.648;2023-03-30T11:39:23;96292.16;;;14.18;91.39
54994;BME280;40891;47.242;8.648;2023-03-30T11:41:58;96297.94;;;14.38;88.31
54994;BME280;40891;47.242;8.648;2023-03-30T11:44:26;96296.97;;;14.41;86.01
54994;BME280;40891;47.242;8.648;2023-03-30T11:47:08;96299.00;;;14.55;82.88
54994;BME280;40891;47.242;8.648;2023-03-30T12:00:30;96298.72;;;14.68;80.13
54994;BME280;40891;47.242;8.648;2023-03-30T12:05:50;96307.81;;;14.77;78.13
54994;BME280;40891;47.242;8.648;2023-03-30T12:11:11;96300.47;;;14.80;80.23
54994;BME280;40891;47.242;8.648;2023-03-30T12:13:39;96299.31;;;14.86;79.43
54994;BME280;40891;47.242;8.648;2023-03-30T12:16:19;96297.28;;;14.87;82.95
54994;BME280;40891;47.242;8.648;2023-03-30T12:18:57;96306.75;;;14.89;84.97
54994;BME280;40891;47.242;8.648;2023-03-30T12:21:30;96312.34;;;14.75;83.58
54994;BME280;40891;47.242;8.648;2023-03-30T12:26:36;96322.41;;;14.67;85.41
54994;BME280;40891;47.242;8.648;2023-03-30T12:29:10;96314.66;;;14.62;84.34
54994;BME280;40891;47.242;8.648;2023-03-30T12:34:17;96310.19;;;14.55;84.16
54994;BME280;40891;47.242;8.648;2023-03-30T12:36:48;96308.28;;;14.47;84.35
54994;BME280;40891;47.242;8.648;2023-03-30T12:39:25;96316.16;;;14.48;87.28
54994;BME280;40891;47.242;8.648;2023-03-30T12:42:03;96317.81;;;14.40;87.92
54994;BME280;40891;47.242;8.648;2023-03-30T12:44:47;96322.22;;;14.32;87.86
54994;BME280;40891;47.242;8.648;2023-03-30T12:55:22;96343.41;;;14.24;84.10
54994;BME280;40891;47.242;8.648;2023-03-30T13:03:54;96336.84;;;14.03;81.43
54994;BME280;40891;47.242;8.648;2023-03-30T13:09:50;96333.59;;;13.81;81.21
54994;BME280;40891;47.242;8.648;2023-03-30T13:40:37;96316.50;;;13.23;81.70
54994;BME280;40891;47.242;8.648;2023-03-30T13:51:40;96325.88;;;13.11;85.68
54994;BME280;40891;47.242;8.648;2023-03-30T13:54:36;96326.31;;;13.18;84.96
54994;BME280;40891;47.242;8.648;2023-03-30T13:57:08;96317.91;;;13.27;86.22
54994;BME280;40891;47.242;8.648;2023-03-30T13:59:36;96314.94;;;13.31;85.25
54994;BME280;40891;47.242;8.648;2023-03-30T14:02:03;96303.63;;;13.25;86.71
54994;BME280;40891;47.242;8.648;2023-03-30T14:04:34;96302.69;;;13.28;83.75
54994;BME280;40891;47.242;8.648;2023-03-30T14:07:12;96311.03;;;13.37;81.69
54994;BME280;40891;47.242;8.648;2023-03-30T14:09:40;96300.75;;;13.43;82.94
54994;BME280;40891;47.242;8.648;2023-03-30T14:12:05;96290.38;;;13.44;81.68
54994;BME280;40891;47.242;8.648;2023-03-30T14:14:35;96311.16;;;13.43;81.41
54994;BME280;40891;47.242;8.648;2023-03-30T14:19:48;96299.16;;;13.51;80.56
54994;BME280;40891;47.242;8.648;2023-03-30T14:22:19;96301.66;;;13.49;81.53
54994;BME280;40891;47.242;8.648;2023-03-30T14:24:59;96302.91;;;13.48;80.36
54994;BME280;40891;47.242;8.648;2023-03-30T14:27:25;96305.22;;;13.50;77.14
54994;BME280;40891;47.242;8.648;2023-03-30T14:29:56;96290.31;;;13.53;76.53
54994;BME280;40891;47.242;8.648;2023-03-30T14:32:21;96281.44;;;13.54;77.20
54994;BME280;40891;47.242;8.648;2023-03-30T14:34:50;96273.38;;;13.56;76.87
54994;BME280;40891;47.242;8.648;2023-03-30T14:37:16;96277.66;;;13.67;76.00
54994;BME280;40891;47.242;8.648;2023-03-30T14:39:45;96281.28;;;13.82;75.22
54994;BME280;40891;47.242;8.648;2023-03-30T14:42:19;96292.31;;;14.00;73.86
54994;BME280;40891;47.242;8.648;2023-03-30T14:44:47;96264.41;;;14.14;74.91
54994;BME280;40891;47.242;8.648;2023-03-30T14:47:15;96262.34;;;14.15;74.76
54994;BME280;40891;47.242;8.648;2023-03-30T14:49:43;96257.91;;;14.61;72.33
54994;BME280;40891;47.242;8.648;2023-03-30T14:52:15;96256.56;;;14.71;70.53
54994;BME280;40891;47.242;8.648;2023-03-30T14:54:44;96247.28;;;14.65;72.44
54994;BME280;40891;47.242;8.648;2023-03-30T14:57:11;96253.78;;;14.71;70.08
54994;BME280;40891;47.242;8.648;2023-03-30T14:59:44;96232.13;;;14.86;69.77
54994;BME280;40891;47.242;8.648;2023-03-30T15:02:19;96240.75;;;14.68;70.21
54994;BME280;40891;47.242;8.648;2023-03-30T15:04:46;96230.59;;;14.42;69.82
54994;BME280;40891;47.242;8.648;2023-03-30T15:07:14;96233.22;;;14.45;69.46
54994;BME280;40891;47.242;8.648;2023-03-30T15:09:41;96230.81;;;14.53;69.16
54994;BME280;40891;47.242;8.648;2023-03-30T15:12:17;96235.75;;;14.43;68.77
54994;BME280;40891;47.242;8.648;2023-03-30T15:14:46;96228.00;;;14.38;70.10
54994;BME280;40891;47.242;8.648;2023-03-30T15:17:19;96227.81;;;14.42;68.76
54994;BME280;40891;47.242;8.648;2023-03-30T15:19:49;96223.16;;;14.39;70.12
54994;BME280;40891;47.242;8.648;2023-03-30T15:22:23;96215.56;;;14.54;70.00
54994;BME280;40891;47.242;8.648;2023-03-30T15:24:52;96210.84;;;15.44;66.08
54994;BME280;40891;47.242;8.648;2023-03-30T15:27:18;96204.75;;;16.06;64.74
54994;BME280;40891;47.242;8.648;2023-03-30T15:29:44;96203.59;;;15.92;63.24
54994;BME280;40891;47.242;8.648;2023-03-30T15:32:31;96191.25;;;15.64;65.51
54994;BME280;40891;47.242;8.648;2023-03-30T15:40:37;96179.69;;;17.11;59.45
54994;BME280;40891;47.242;8.648;2023-03-30T15:45:39;96176.38;;;18.35;54.62